Time;durP1;ratioP1;P1;durP2;ratioP2;P2;SDS_P1;SDS_P2;PMS_P1;PMS_P2;Temp;Humidity;BMP_temperature;BMP_pressure;BME280_temperature;BME280_humidity;BME280_pressure;Samples;Min_cycle;Max_cycle;Signal;HPM_P1;HPM_P2
2023/01/27 00:01:37;;;;;;;32.13;9.35;;;3.80;99.90;;;3.48;100.00;101612.16;5144427;28;20034;-69
2023/01/27 00:04:10;;;;;;;27.38;9.55;;;3.80;99.90;;;3.47;100.00;101607.78;5145001;28;20042;-70
2023/01/27 00:06:44;;;;;;;34.50;10.50;;;3.80;99.90;;;3.45;100.00;101608.44;5144743;28;20042;-70
2023/01/27 00:09:16;;;;;;;25.65;8.50;;;3.80;99.90;;;3.41;100.00;101602.16;5144144;28;20051;-69
2023/01/27 00:14:40;;;;;;;25.48;9.32;;;3.70;99.90;;;3.38;100.00;101612.22;5144439;28;20066;-69
2023/01/27 00:17:12;;;;;;;25.77;9.15;;;3.70;99.90;;;3.38;100.00;101608.75;5144185;28;20049;-69
2023/01/27 00:19:45;;;;;;;24.67;9.65;;;3.70;99.90;;;3.39;100.00;101613.13;5142562;28;20512;-70
2023/01/27 00:25:11;;;;;;;30.23;9.02;;;3.60;99.90;;;3.35;100.00;101606.84;5142880;28;20047;-69
2023/01/27 00:27:43;;;;;;;24.63;8.60;;;3.60;99.90;;;3.34;100.00;101609.31;5142222;28;20057;-70
2023/01/27 00:30:18;;;;;;;23.73;7.63;;;3.60;99.90;;;3.34;100.00;101612.78;5158647;28;20046;-70
2023/01/27 00:35:41;;;;;;;23.83;7.00;;;3.60;99.90;;;3.34;100.00;101612.78;5143183;28;20125;-70
2023/01/27 00:38:14;;;;;;;18.80;6.80;;;3.60;99.90;;;3.34;100.00;101612.78;5159132;28;20050;-69
2023/01/27 00:41:14;;;;;;;20.48;7.22;;;3.60;99.90;;;3.33;100.00;101616.16;5158770;28;20046;-69
2023/01/27 00:43:42;;;;;;;25.60;8.20;;;3.60;99.90;;;3.32;100.00;101622.06;5141232;28;20043;-70
2023/01/27 00:46:14;;;;;;;20.80;7.05;;;3.60;99.90;;;3.33;100.00;101621.31;5158572;28;20294;-70
2023/01/27 00:48:47;;;;;;;20.42;7.18;;;3.60;99.90;;;3.35;100.00;101618.84;5143916;28;20039;-70
2023/01/27 00:51:22;;;;;;;27.75;7.60;;;3.60;99.90;;;3.36;100.00;101623.22;5144177;28;20498;-69
2023/01/27 00:53:58;;;;;;;22.60;7.68;;;3.60;99.90;;;3.38;100.00;101626.78;5143888;28;20072;-70
2023/01/27 00:56:30;;;;;;;21.45;7.90;;;3.70;99.90;;;3.37;100.00;101628.47;5158663;28;20105;-69
2023/01/27 00:59:05;;;;;;;22.73;7.88;;;3.70;99.90;;;3.38;100.00;101621.63;5143294;28;20053;-69
2023/01/27 01:01:38;;;;;;;18.58;7.18;;;3.60;99.90;;;3.39;100.00;101629.50;5143569;28;20042;-70
2023/01/27 01:04:12;;;;;;;21.90;7.15;;;3.70;99.90;;;3.40;100.00;101631.31;5156139;28;20090;-70
2023/01/27 01:06:44;;;;;;;18.92;6.15;;;3.70;99.90;;;3.41;100.00;101633.09;5167206;28;20057;-69
2023/01/27 01:09:19;;;;;;;21.90;8.05;;;3.70;99.90;;;3.41;100.00;101633.09;5169430;28;20039;-70
2023/01/27 01:11:53;;;;;;;25.85;8.25;;;3.70;99.90;;;3.42;100.00;101632.31;5146121;28;20454;-68
2023/01/27 01:14:25;;;;;;;25.00;8.10;;;3.70;99.90;;;3.45;100.00;101644.53;5147212;28;20046;-70
2023/01/27 01:16:58;;;;;;;25.30;9.00;;;3.70;99.90;;;3.45;100.00;101642.84;5146975;28;20051;-70
2023/01/27 01:19:31;;;;;;;23.15;7.80;;;3.70;99.90;;;3.47;100.00;101650.72;5150570;28;20039;-69
2023/01/27 01:22:03;;;;;;;25.92;8.05;;;3.70;99.90;;;3.47;100.00;101649.03;5152610;28;20039;-70
2023/01/27 01:24:37;;;;;;;21.33;7.72;;;3.70;99.90;;;3.49;100.00;101651.72;5149204;28;20054;-69
2023/01/27 01:27:09;;;;;;;19.30;6.25;;;3.70;99.90;;;3.49;100.00;101650.03;5141533;28;20061;-70
2023/01/27 01:29:42;;;;;;;25.50;8.57;;;3.80;99.90;;;3.51;100.00;101651.03;5143324;28;20042;-69
2023/01/27 01:32:14;;;;;;;23.45;7.55;;;3.80;99.90;;;3.51;100.00;101647.56;5158421;28;20039;-70
2023/01/27 01:34:46;;;;;;;18.50;7.20;;;3.80;99.90;;;3.52;100.00;101651.94;5158119;28;20050;-69
2023/01/27 01:37:18;;;;;;;19.77;8.45;;;3.80;99.90;;;3.53;100.00;101653.75;5158287;28;20055;-68
2023/01/27 01:39:51;;;;;;;24.48;9.23;;;3.80;99.90;;;3.54;100.00;101652.97;5143179;28;20047;-68
2023/01/27 01:42:24;;;;;;;21.00;7.80;;;3.90;99.90;;;3.56;100.00;101653.09;5158159;28;20047;-70
2023/01/27 01:45:40;;;;;;;22.58;7.97;;;3.90;99.90;;;3.58;100.00;101654.09;5158504;28;20078;-69
2023/01/27 01:48:18;;;;;;;23.92;8.05;;;3.90;99.90;;;3.59;100.00;101658.50;5158157;28;20059;-70
2023/01/27 01:51:01;;;;;;;18.63;7.22;;;3.90;99.90;;;3.61;100.00;101655.25;5141783;28;20058;-70
2023/01/27 01:53:39;;;;;;;22.90;7.05;;;3.90;99.90;;;3.61;100.00;101654.34;5142027;28;20051;-70
2023/01/27 01:56:19;;;;;;;26.50;9.02;;;3.90;99.90;;;3.62;100.00;101654.44;5141967;28;20051;-70
2023/01/27 01:58:55;;;;;;;20.60;7.70;;;3.90;99.90;;;3.65;100.00;101640.88;5141597;28;20098;-69
2023/01/27 02:01:27;;;;;;;22.60;8.10;;;3.90;99.90;;;3.65;100.00;101646.03;5142754;28;20548;-69
2023/01/27 02:04:05;;;;;;;21.65;8.48;;;4.00;99.90;;;3.67;100.00;101641.91;5142073;28;20062;-69
2023/01/27 02:06:43;;;;;;;21.17;7.82;;;4.00;99.90;;;3.68;100.00;101646.28;5158123;28;20512;-69
2023/01/27 02:09:16;;;;;;;22.75;7.50;;;4.00;99.90;;;3.69;100.00;101650.66;5142493;28;20578;-70
2023/01/27 02:11:50;;;;;;;19.10;7.03;;;4.00;99.90;;;3.70;100.00;101655.03;5157702;28;20055;-71
2023/01/27 02:14:22;;;;;;;19.95;6.93;;;4.00;99.90;;;3.71;100.00;101643.91;5143063;28;20053;-71
2023/01/27 02:16:54;;;;;;;19.60;7.75;;;4.00;99.90;;;3.72;100.00;101645.75;5141906;28;20431;-69
2023/01/27 02:19:35;;;;;;;14.60;5.93;;;4.00;99.90;;;3.73;100.00;101650.13;5157095;28;20058;-69
2023/01/27 02:22:15;;;;;;;16.27;5.82;;;4.00;99.90;;;3.75;100.00;101656.28;5143191;28;20050;-71
2023/01/27 02:24:54;;;;;;;17.90;6.70;;;4.10;99.90;;;3.75;100.00;101651.13;5142803;28;20089;-69
2023/01/27 02:27:28;;;;;;;16.65;6.25;;;4.10;99.90;;;3.76;100.00;101653.81;5142934;28;20122;-72
2023/01/27 02:30:00;;;;;;;18.17;6.97;;;4.00;99.90;;;3.76;100.00;101652.91;5142572;28;20051;-69
2023/01/27 02:32:34;;;;;;;18.98;6.53;;;4.00;99.90;;;3.76;100.00;101653.81;5142761;28;20109;-72
2023/01/27 02:35:09;;;;;;;16.90;6.10;;;4.10;99.90;;;3.75;100.00;101649.44;5157726;28;20479;-72
2023/01/27 02:37:42;;;;;;;18.17;6.55;;;4.00;99.90;;;3.74;100.00;101650.22;5157610;28;20051;-72
2023/01/27 02:40:15;;;;;;;19.67;6.18;;;4.00;99.90;;;3.75;100.00;101640.81;5140614;28;20055;-72
2023/01/27 02:42:48;;;;;;;13.55;5.90;;;4.00;99.90;;;3.74;100.00;101649.34;5141571;28;20068;-72
2023/01/27 02:45:21;;;;;;;17.38;6.30;;;4.00;99.90;;;3.75;100.00;101664.03;5142611;28;20411;-72
2023/01/27 02:47:54;;;;;;;16.85;6.53;;;4.00;99.90;;;3.74;100.00;101646.75;5161531;28;20497;-72
2023/01/27 02:50:28;;;;;;;13.32;5.35;;;4.00;99.90;;;3.75;100.00;101653.69;5146021;28;20069;-72
2023/01/27 02:53:00;;;;;;;10.57;4.72;;;4.10;99.90;;;3.76;100.00;101648.66;5146495;28;20131;-72
2023/01/27 02:55:33;;;;;;;11.60;5.30;;;4.10;99.90;;;3.77;100.00;101654.72;5145069;28;20183;-72
2023/01/27 02:58:06;;;;;;;13.52;5.70;;;4.10;99.90;;;3.77;100.00;101658.19;5145178;28;20054;-71
2023/01/27 03:00:48;;;;;;;14.60;5.05;;;4.00;99.90;;;3.77;100.00;101650.44;5144477;28;20050;-72
2023/01/27 03:03:21;;;;;;;15.98;5.45;;;4.00;99.90;;;3.77;100.00;101652.13;5161545;28;20089;-72
2023/01/27 03:05:53;;;;;;;13.68;4.75;;;4.10;99.90;;;3.77;100.00;101660.75;5144950;28;20143;-72
2023/01/27 03:08:26;;;;;;;13.68;4.63;;;4.10;99.90;;;3.76;100.00;101671.88;5161326;28;20419;-72
2023/01/27 03:10:58;;;;;;;12.80;4.68;;;4.10;99.90;;;3.76;100.00;101668.38;5144547;28;20069;-72
2023/01/27 03:13:31;;;;;;;12.23;4.68;;;4.00;99.90;;;3.77;100.00;101681.38;5160975;28;20050;-72
2023/01/27 03:18:55;;;;;;;11.85;5.00;;;4.00;99.90;;;3.76;100.00;101669.28;5144268;28;20137;-72
2023/01/27 03:21:27;;;;;;;13.57;4.38;;;4.10;99.90;;;3.76;100.00;101683.88;5160991;28;20504;-72
2023/01/27 03:24:00;;;;;;;13.18;4.55;;;4.10;99.90;;;3.76;100.00;101679.59;5161057;28;20081;-72
2023/01/27 03:26:32;;;;;;;13.55;4.30;;;4.10;99.90;;;3.76;100.00;101684.75;5160793;28;20065;-74
2023/01/27 03:31:55;;;;;;;10.63;4.10;;;4.00;99.90;;;3.75;100.00;101682.06;5144388;28;20093;-72
2023/01/27 03:34:28;;;;;;;12.55;4.18;;;4.10;99.90;;;3.77;100.00;101685.66;5144459;28;20106;-72
2023/01/27 03:48:30;;;;;;;10.13;3.97;;;4.10;99.90;;;3.78;100.00;101687.44;5145042;28;20054;-72
2023/01/27 03:51:06;;;;;;;8.75;3.17;;;4.10;99.90;;;3.78;100.00;101682.28;5143805;28;20077;-75
2023/01/27 03:53:38;;;;;;;8.05;3.20;;;4.10;99.90;;;3.80;100.00;101685.91;5160615;28;20046;-72
2023/01/27 03:56:11;;;;;;;7.97;2.97;;;4.10;99.90;;;3.81;100.00;101687.69;5145183;28;20129;-72
2023/01/27 03:58:44;;;;;;;8.70;3.35;;;4.10;99.90;;;3.80;100.00;101688.47;5145123;28;20057;-74
2023/01/27 04:01:21;;;;;;;9.00;3.00;;;4.10;99.90;;;3.82;100.00;101692.06;5144894;28;20047;-74
2023/01/27 04:06:53;;;;;;;9.25;3.33;;;4.10;99.90;;;3.81;100.00;101685.13;5145177;28;20054;-74
2023/01/27 04:09:28;;;;;;;8.48;3.05;;;4.10;99.90;;;3.82;100.00;101689.50;5142964;28;20423;-74
2023/01/27 04:12:03;;;;;;;8.48;3.10;;;4.10;99.90;;;3.82;100.00;101681.75;5145059;28;20060;-74
2023/01/27 04:14:37;;;;;;;8.75;3.55;;;4.10;99.90;;;3.83;100.00;101687.81;5145081;28;20420;-74
2023/01/27 04:17:15;;;;;;;9.40;3.35;;;4.10;99.90;;;3.83;100.00;101690.38;5143850;28;20051;-74
2023/01/27 04:19:47;;;;;;;8.25;3.42;;;4.10;99.90;;;3.80;100.00;101691.06;5143318;28;20047;-74
2023/01/27 04:22:19;;;;;;;9.00;3.50;;;4.10;99.90;;;3.77;100.00;101686.56;5144898;28;20042;-74
2023/01/27 04:24:52;;;;;;;11.10;3.80;;;4.00;99.90;;;3.75;100.00;101687.22;5143641;28;20047;-74
2023/01/27 04:27:24;;;;;;;7.93;3.53;;;4.10;99.90;;;3.75;100.00;101684.66;5144928;28;20076;-74
2023/01/27 04:29:56;;;;;;;9.25;3.40;;;4.10;99.90;;;3.76;100.00;101689.03;5144196;28;20416;-74
2023/01/27 04:32:30;;;;;;;7.75;2.95;;;4.10;99.90;;;3.78;100.00;101690.03;5144980;28;20125;-74
2023/01/27 04:35:02;;;;;;;8.27;2.78;;;4.10;99.90;;;3.78;100.00;101692.59;5144879;28;20427;-74
2023/01/27 04:37:34;;;;;;;6.22;2.70;;;4.10;99.90;;;3.78;100.00;101698.69;5144661;28;20050;-74
2023/01/27 04:40:08;;;;;;;7.65;2.55;;;4.10;99.90;;;3.79;100.00;101695.31;5142780;28;20074;-74
2023/01/27 04:42:40;;;;;;;7.50;2.70;;;4.10;99.90;;;3.81;100.00;101698.91;5159663;28;20055;-74
2023/01/27 04:45:16;;;;;;;6.30;2.80;;;4.10;99.90;;;3.79;100.00;101699.59;5253085;23;20001;-65
2023/01/27 04:47:49;;;;;;;7.43;2.80;;;4.10;99.90;;;3.80;100.00;101691.06;5155446;28;20128;-64
2023/01/27 04:50:21;;;;;;;7.13;2.72;;;4.10;99.90;;;3.81;100.00;101703.16;5164040;28;20510;-64
2023/01/27 04:52:54;;;;;;;7.35;2.60;;;4.10;99.90;;;3.79;100.00;101697.00;5164465;28;20042;-63
2023/01/27 04:55:26;;;;;;;7.03;2.50;;;4.10;99.90;;;3.77;100.00;101701.13;5164808;28;20050;-65
2023/01/27 04:57:58;;;;;;;5.88;2.40;;;4.10;99.90;;;3.76;100.00;101701.91;5163192;28;20549;-65
2023/01/27 05:00:30;;;;;;;7.65;3.00;;;4.10;99.90;;;3.75;100.00;101697.53;5164124;28;20046;-64
2023/01/27 05:03:04;;;;;;;7.95;2.63;;;4.10;99.90;;;3.74;100.00;101706.97;5164476;28;20495;-63
2023/01/27 05:05:37;;;;;;;7.00;2.85;;;4.10;99.90;;;3.74;100.00;101706.06;5179163;28;20050;-64
2023/01/27 05:08:11;;;;;;;7.07;2.75;;;4.00;99.90;;;3.73;100.00;101718.06;5161957;28;20057;-64
2023/01/27 05:10:44;;;;;;;7.07;2.60;;;4.00;99.90;;;3.75;100.00;101718.19;5162373;28;20046;-65
2023/01/27 05:13:16;;;;;;;8.43;3.10;;;4.10;99.90;;;3.74;100.00;101713.81;5164354;28;20487;-65
2023/01/27 05:15:48;;;;;;;10.18;3.50;;;4.00;99.90;;;3.72;100.00;101718.84;5162468;28;20064;-65
2023/01/27 05:18:21;;;;;;;9.55;3.05;;;4.10;99.90;;;3.69;100.00;101720.28;5163600;28;20093;-64
2023/01/27 05:20:53;;;;;;;8.88;3.35;;;4.00;99.90;;;3.65;100.00;101721.75;5163546;28;20053;-64
2023/01/27 05:23:35;;;;;;;10.20;3.00;;;4.00;99.90;;;3.67;100.00;101716.69;5162806;28;20495;-64
2023/01/27 05:26:11;;;;;;;9.20;3.45;;;4.00;99.90;;;3.65;100.00;101714.00;5163659;28;20046;-65
2023/01/27 05:28:46;;;;;;;8.85;3.00;;;4.00;99.90;;;3.66;100.00;101723.53;5162435;28;20065;-64
2023/01/27 05:31:20;;;;;;;7.55;3.08;;;4.00;99.90;;;3.66;100.00;101732.97;5163615;28;20046;-65
2023/01/27 05:33:56;;;;;;;8.05;2.90;;;4.00;99.90;;;3.64;100.00;101719.03;5178585;28;20042;-64
2023/01/27 05:36:29;;;;;;;9.90;3.50;;;4.00;99.90;;;3.63;100.00;101732.69;5163798;28;20519;-64
2023/01/27 05:39:01;;;;;;;10.18;3.70;;;4.00;99.90;;;3.62;100.00;101736.97;5162202;28;20062;-65
2023/01/27 05:41:33;;;;;;;10.43;3.47;;;4.00;99.90;;;3.65;100.00;101733.72;5163847;28;20422;-64
2023/01/27 05:44:06;;;;;;;9.18;3.38;;;4.00;99.90;;;3.66;100.00;101738.13;5163568;28;20538;-65
2023/01/27 05:46:41;;;;;;;8.45;3.10;;;4.00;99.90;;;3.68;100.00;101733.97;5163487;28;20042;-62
2023/01/27 05:49:15;;;;;;;8.93;3.65;;;4.00;99.90;;;3.70;100.00;101740.13;5161855;28;20355;-64
2023/01/27 05:51:47;;;;;;;8.55;3.15;;;4.00;99.90;;;3.68;100.00;101736.53;5163261;28;20058;-64
2023/01/27 05:54:19;;;;;;;8.90;3.58;;;4.00;99.90;;;3.68;100.00;101736.53;5162122;28;20042;-64
2023/01/27 05:56:51;;;;;;;11.60;3.30;;;4.00;99.90;;;3.66;100.00;101744.16;5163409;28;20054;-65
2023/01/27 05:59:23;;;;;;;7.88;3.30;;;4.00;99.90;;;3.65;100.00;101747.53;5163145;28;20514;-65
2023/01/27 06:01:55;;;;;;;9.23;4.03;;;4.00;99.90;;;3.65;100.00;101744.03;5163279;28;20054;-65
2023/01/27 06:04:29;;;;;;;9.48;3.60;;;4.00;99.90;;;3.64;100.00;101744.81;5162160;28;20046;-64
2023/01/27 06:07:02;;;;;;;10.13;3.50;;;4.00;99.90;;;3.66;100.00;101743.28;5163430;28;20125;-63
2023/01/27 06:09:34;;;;;;;9.73;3.72;;;4.00;99.90;;;3.66;100.00;101745.84;5163315;28;20057;-65
2023/01/27 06:12:06;;;;;;;7.82;3.40;;;4.00;99.90;;;3.67;100.00;101739.91;5163397;28;20491;-64
2023/01/27 06:14:38;;;;;;;9.38;3.75;;;4.00;99.90;;;3.69;100.00;101751.22;5163156;28;20039;-65
2023/01/27 06:17:10;;;;;;;7.03;3.38;;;4.00;99.90;;;3.68;100.00;101754.59;5163156;28;20074;-65
2023/01/27 06:19:44;;;;;;;8.77;3.22;;;4.00;99.90;;;3.67;100.00;101752.81;5163431;28;20046;-64
2023/01/27 06:22:16;;;;;;;10.13;3.30;;;4.00;99.90;;;3.67;100.00;101755.38;5167838;28;20058;-63
2023/01/27 06:24:48;;;;;;;9.45;3.72;;;4.00;99.90;;;3.68;100.00;101752.00;5167367;28;20042;-64
2023/01/27 06:27:21;;;;;;;9.15;3.00;;;4.00;99.90;;;3.68;100.00;101752.91;5167385;28;20050;-65
2023/01/27 06:29:53;;;;;;;8.15;3.28;;;4.00;99.90;;;3.70;100.00;101746.19;5166979;28;20050;-65
2023/01/27 06:32:25;;;;;;;8.02;3.22;;;4.00;99.90;;;3.72;100.00;101751.47;5167283;28;20054;-64
2023/01/27 06:34:59;;;;;;;9.25;3.35;;;4.00;99.90;;;3.74;100.00;101749.91;5165719;28;20043;-64
2023/01/27 06:37:31;;;;;;;7.40;2.90;;;4.00;99.90;;;3.76;100.00;101746.66;5166940;28;20117;-60
2023/01/27 06:40:04;;;;;;;6.75;2.78;;;4.10;99.90;;;3.80;100.00;101752.97;5166703;28;20046;-61
2023/01/27 06:42:43;;;;;;;6.15;2.65;;;4.10;99.90;;;3.82;100.00;101756.56;5166833;28;20042;-61
2023/01/27 06:45:15;;;;;;;8.63;3.38;;;4.10;99.90;;;3.83;100.00;101753.19;5165492;28;20062;-61
2023/01/27 06:47:55;;;;;;;9.35;3.50;;;4.10;99.90;;;3.83;100.00;101762.59;5166625;28;20057;-60
2023/01/27 06:50:30;;;;;;;7.93;3.20;;;4.10;99.90;;;3.85;100.00;101758.44;5166354;28;20046;-61
2023/01/27 06:53:04;;;;;;;9.27;3.17;;;4.10;99.90;;;3.84;100.00;101762.72;5165314;28;20046;-60
2023/01/27 06:55:40;;;;;;;9.13;3.85;;;4.20;99.90;;;3.86;100.00;101763.75;5166663;28;20046;-61
2023/01/27 06:58:17;;;;;;;8.05;3.65;;;4.20;99.90;;;3.85;100.00;101763.63;5166242;28;20050;-61
2023/01/27 07:00:50;;;;;;;10.07;3.85;;;4.20;99.90;;;3.88;100.00;101769.94;5166760;28;20576;-62
2023/01/27 07:03:22;;;;;;;10.05;3.13;;;4.20;99.90;;;4.00;100.00;101776.03;5165180;28;20042;-59
2023/01/27 07:05:55;;;;;;;9.10;3.47;;;4.30;99.90;;;4.01;100.00;101775.25;5166044;28;20038;-50
2023/01/27 07:08:27;;;;;;;9.10;3.40;;;4.40;99.90;;;4.02;100.00;101777.03;5165946;28;20042;-53
2023/01/27 07:11:03;;;;;;;8.55;3.65;;;4.40;99.90;;;4.02;100.00;101782.19;5166051;28;20050;-52
2023/01/27 07:13:36;;;;;;;9.13;3.33;;;4.30;99.90;;;4.01;100.00;101784.66;5166139;28;20487;-52
2023/01/27 07:16:08;;;;;;;5.53;2.40;;;4.30;99.90;;;4.01;100.00;101782.09;5166370;28;20049;-53
2023/01/27 07:18:40;;;;;;;9.38;3.53;;;4.30;99.90;;;3.98;100.00;101790.50;5166073;28;20145;-53
2023/01/27 07:21:13;;;;;;;10.05;3.58;;;4.30;99.90;;;3.98;100.00;101790.50;5164911;28;20057;-53
2023/01/27 07:23:45;;;;;;;8.35;3.25;;;4.30;99.90;;;3.98;100.00;101795.66;5166098;28;20407;-52
2023/01/27 07:26:18;;;;;;;8.32;3.28;;;4.30;99.90;;;3.98;100.00;101793.09;5165692;28;20046;-51
2023/01/27 07:28:50;;;;;;;10.25;3.95;;;4.30;99.90;;;3.98;100.00;101803.41;5165399;28;20430;-53
2023/01/27 07:31:22;;;;;;;10.73;4.20;;;4.30;99.90;;;3.99;100.00;101797.44;5163951;28;20062;-52
2023/01/27 07:33:54;;;;;;;12.35;3.85;;;4.30;99.90;;;3.96;100.00;101789.47;5165763;28;20051;-54
2023/01/27 07:36:28;;;;;;;12.27;4.70;;;4.30;99.90;;;3.97;100.00;101793.84;5164637;28;20057;-54
2023/01/27 07:39:00;;;;;;;11.85;3.83;;;4.30;99.90;;;3.97;100.00;101799.00;5165841;28;20042;-52
2023/01/27 07:41:32;;;;;;;11.52;4.22;;;4.30;99.90;;;4.00;100.00;101794.09;5165807;28;20140;-51
2023/01/27 07:44:04;;;;;;;13.00;3.83;;;4.30;99.90;;;3.98;100.00;101790.50;5165782;28;20046;-51
2023/01/27 07:46:39;;;;;;;11.40;4.35;;;4.30;99.90;;;4.01;100.00;101787.25;5164545;28;20077;-52
2023/01/27 07:49:11;;;;;;;9.73;3.85;;;4.30;99.90;;;4.01;100.00;101790.72;5165430;28;20050;-51
2023/01/27 07:51:45;;;;;;;10.63;4.60;;;4.30;99.90;;;4.01;100.00;101794.97;5165535;28;20045;-53
2023/01/27 07:54:17;;;;;;;10.77;4.45;;;4.30;99.90;;;4.03;100.00;101798.56;5165636;28;20414;-52
2023/01/27 07:56:49;;;;;;;12.38;5.07;;;4.30;99.90;;;4.04;100.00;101814.19;5165440;28;20468;-53
2023/01/27 07:59:21;;;;;;;11.63;4.75;;;4.30;99.90;;;4.04;100.00;101806.47;5165377;28;20049;-53
2023/01/27 08:01:54;;;;;;;11.02;3.75;;;4.40;99.90;;;4.07;100.00;101808.34;5165456;28;20057;-53
2023/01/27 08:04:26;;;;;;;9.18;3.53;;;4.40;99.90;;;4.12;100.00;101813.88;5165257;28;20042;-52
2023/01/27 08:07:00;;;;;;;10.02;3.65;;;4.40;99.90;;;4.13;100.00;101811.41;5165200;28;20048;-54
2023/01/27 08:09:32;;;;;;;10.15;3.55;;;4.40;99.90;;;4.19;100.00;101811.00;5165103;28;20129;-53
2023/01/27 08:12:05;;;;;;;10.88;3.58;;;4.50;99.90;;;4.24;100.00;101812.25;5165711;28;20066;-53
2023/01/27 08:14:37;;;;;;;9.73;3.90;;;4.50;99.90;;;4.26;100.00;101814.16;5164017;28;20129;-52
2023/01/27 08:17:10;;;;;;;9.43;3.47;;;4.50;99.90;;;4.31;100.00;101817.09;5165029;28;20129;-53
2023/01/27 08:19:42;;;;;;;9.25;3.58;;;4.60;99.90;;;4.36;100.00;101815.72;5165211;28;20108;-50
2023/01/27 08:22:18;;;;;;;7.95;2.95;;;4.60;99.90;;;4.38;100.00;101823.63;5165063;28;20042;-51
2023/01/27 08:24:51;;;;;;;9.52;3.25;;;4.60;99.90;;;4.40;100.00;101822.94;5165025;28;20558;-51
2023/01/27 08:27:23;;;;;;;10.23;3.65;;;4.60;99.90;;;4.42;100.00;101820.47;5163667;28;20500;-52
2023/01/27 08:29:55;;;;;;;7.60;3.13;;;4.70;99.90;;;4.48;100.00;101826.09;5165194;28;20050;-53
2023/01/27 08:32:28;;;;;;;8.55;3.60;;;4.70;99.90;;;4.51;100.00;101823.75;5163113;28;20060;-52
2023/01/27 08:35:00;;;;;;;8.18;3.40;;;4.80;99.90;;;4.58;100.00;101823.44;5164231;28;20042;-53
2023/01/27 08:37:33;;;;;;;8.95;3.53;;;4.80;99.90;;;4.66;100.00;101821.41;5164556;28;20034;-53
2023/01/27 08:40:07;;;;;;;10.75;3.78;;;4.90;99.90;;;4.72;100.00;101827.03;5164694;28;20050;-50
2023/01/27 08:42:39;;;;;;;10.02;3.50;;;4.90;99.90;;;4.80;100.00;101818.16;5164475;28;20062;-49
2023/01/27 08:45:11;;;;;;;9.93;3.40;;;5.00;99.90;;;4.90;100.00;101823.25;5164506;28;20487;-52
2023/01/27 08:47:43;;;;;;;8.00;3.22;;;5.10;99.90;;;4.97;100.00;101822.91;5164147;28;20042;-52
2023/01/27 08:50:16;;;;;;;9.05;3.20;;;5.20;99.90;;;5.02;100.00;101821.56;5164625;28;20054;-50
2023/01/27 08:52:49;;;;;;;9.55;3.75;;;5.20;99.90;;;5.07;100.00;101827.03;5164239;28;20060;-51
2023/01/27 08:55:21;;;;;;;7.60;3.28;;;5.30;99.90;;;5.06;100.00;101826.16;5164325;28;20053;-52
2023/01/27 08:57:53;;;;;;;6.75;2.78;;;5.30;99.90;;;5.04;100.00;101832.91;5164787;28;20038;-53
2023/01/27 09:00:26;;;;;;;8.30;3.30;;;5.30;99.90;;;5.04;100.00;101830.31;5164684;28;20550;-53
2023/01/27 09:02:58;;;;;;;6.43;2.90;;;5.30;99.90;;;5.05;100.00;101833.78;5164137;28;20479;-51
2023/01/27 09:05:30;;;;;;;6.45;2.45;;;5.30;99.90;;;5.06;100.00;101826.16;5164144;28;20046;-50
2023/01/27 09:08:05;;;;;;;6.55;2.55;;;5.30;99.90;;;5.04;100.00;101832.91;5164141;28;20051;-51
2023/01/27 09:10:38;;;;;;;6.30;2.42;;;5.30;99.90;;;5.02;100.00;101828.38;5163749;28;20050;-50
2023/01/27 09:13:10;;;;;;;6.28;2.40;;;5.20;99.90;;;5.02;100.00;101824.16;5164174;28;20042;-53
2023/01/27 09:15:45;;;;;;;4.95;2.40;;;5.30;99.90;;;5.04;100.00;101827.72;5164090;28;20334;-53
2023/01/27 09:18:17;;;;;;;5.18;2.10;;;5.30;99.90;;;5.06;100.00;101825.25;5164104;28;20043;-53
2023/01/27 09:20:49;;;;;;;5.32;2.50;;;5.30;99.90;;;5.09;100.00;101823.81;5163805;28;20061;-52
2023/01/27 09:23:22;;;;;;;5.35;2.60;;;5.30;99.90;;;5.17;100.00;101829.53;5163946;28;20140;-52
2023/01/27 09:25:54;;;;;;;4.78;2.22;;;5.40;99.90;;;5.28;100.00;101836.38;5163625;28;20046;-52
2023/01/27 09:28:27;;;;;;;4.85;2.13;;;5.40;99.90;;;5.42;100.00;101840.84;5163828;28;20076;-52
2023/01/27 09:30:59;;;;;;;4.35;2.40;;;5.50;99.90;;;5.63;100.00;101838.91;5163805;28;20049;-53
2023/01/27 09:33:32;;;;;;;4.85;2.20;;;5.70;99.90;;;5.83;100.00;101836.81;5163398;28;20518;-51
2023/01/27 09:36:10;;;;;;;4.22;1.85;;;5.90;99.90;;;6.02;100.00;101834.75;5163297;28;20050;-50
2023/01/27 09:38:48;;;;;;;3.53;1.88;;;6.00;99.90;;;6.18;100.00;101834.13;5163388;28;20515;-51
2023/01/27 09:41:47;;;;;;;3.17;1.70;;;6.20;99.90;;;6.32;100.00;101846.31;5164090;28;20054;-53
2023/01/27 09:45:01;;;;;;;3.28;1.48;;;6.40;99.90;;;6.36;100.00;101852.63;5162823;28;20084;-51
2023/01/27 09:47:59;;;;;;;2.25;1.10;;;6.40;99.90;;;6.22;100.00;101852.56;5163757;28;20393;-52
2023/01/27 09:50:43;;;;;;;1.80;1.10;;;6.40;99.90;;;6.27;100.00;101854.59;5161683;28;20050;-51
2023/01/27 09:53:53;;;;;;;2.08;1.17;;;6.40;99.90;;;6.22;100.00;101862.94;5162324;28;20125;-51
2023/01/27 09:56:47;;;;;;;2.15;1.17;;;6.40;99.90;;;6.08;100.00;101876.59;5163762;28;20369;-51
2023/01/27 09:59:37;;;;;;;1.88;1.20;;;6.30;99.90;;;5.98;100.00;101882.81;5161302;28;20070;-51
2023/01/27 10:02:29;;;;;;;1.60;1.10;;;6.30;99.90;;;5.97;100.00;101885.31;5160674;28;20050;-50
2023/01/27 10:05:34;;;;;;;1.92;1.20;;;6.20;99.90;;;5.93;100.00;101889.38;5163371;28;20096;-51
2023/01/27 10:08:39;;;;;;;1.70;1.10;;;6.20;99.90;;;5.86;100.00;101891.38;5163148;28;20054;-55
2023/01/27 10:11:20;;;;;;;1.58;1.10;;;6.10;99.90;;;5.80;100.00;101891.81;5163258;28;20046;-52
2023/01/27 10:14:09;;;;;;;2.08;1.13;;;6.10;99.90;;;5.76;100.00;101897.59;5163362;28;20062;-51
2023/01/27 10:17:19;;;;;;;2.65;1.25;;;6.00;99.90;;;5.77;100.00;101888.13;5163633;28;20043;-51
2023/01/27 10:20:06;;;;;;;1.17;0.90;;;6.00;99.90;;;5.86;100.00;101886.19;5160788;28;20061;-51
2023/01/27 10:22:49;;;;;;;1.95;1.10;;;6.10;99.90;;;5.89;100.00;101889.91;5163151;28;20531;-52
2023/01/27 10:25:34;;;;;;;2.45;1.13;;;6.10;99.90;;;5.96;100.00;101892.16;5163273;28;20047;-52
2023/01/27 10:28:14;;;;;;;1.48;0.93;;;6.10;99.90;;;6.01;100.00;101894.19;5163165;28;20050;-50
2023/01/27 10:30:55;;;;;;;1.52;1.25;;;6.20;99.90;;;5.99;100.00;101894.06;5163023;28;20207;-52
2023/01/27 10:33:43;;;;;;;1.70;1.02;;;6.20;99.90;;;5.97;100.00;101893.06;5163191;28;20495;-53
2023/01/27 10:36:26;;;;;;;1.20;1.00;;;6.20;99.90;;;5.92;100.00;101887.56;5163234;28;20402;-53
2023/01/27 10:39:12;;;;;;;1.60;0.82;;;6.20;99.90;;;5.94;100.00;101892.88;5163086;28;20058;-53
2023/01/27 10:41:55;;;;;;;0.75;0.73;;;6.20;99.90;;;5.88;100.00;101895.88;5163084;28;20043;-53
2023/01/27 10:44:52;;;;;;;2.75;1.10;;;6.10;99.90;;;6.38;100.00;101889.88;5162811;28;20477;-53
2023/01/27 10:47:38;;;;;;;2.17;1.30;;;6.60;99.90;;;6.40;100.00;101893.47;5225891;23;20164;-55
2023/01/27 10:50:17;;;;;;;2.28;1.15;;;6.70;99.90;;;6.28;100.00;101896.13;5183473;28;20520;-53
2023/01/27 10:52:57;;;;;;;2.25;0.98;;;6.60;99.90;;;6.23;100.00;101893.19;5183770;28;20499;-54
2023/01/27 10:55:38;;;;;;;1.58;0.80;;;6.60;99.90;;;6.20;100.00;101892.09;5183564;28;20611;-54
2023/01/27 10:58:19;;;;;;;1.98;0.90;;;6.50;99.90;;;6.22;100.00;101893.09;5183478;28;20517;-54
2023/01/27 11:00:55;;;;;;;1.58;1.13;;;6.50;99.90;;;6.20;100.00;101892.09;5183629;28;20045;-54
2023/01/27 11:03:33;;;;;;;1.27;0.80;;;6.40;99.90;;;6.11;100.00;101884.56;5183513;28;20392;-59
2023/01/27 11:06:11;;;;;;;1.55;1.00;;;6.40;99.90;;;6.07;100.00;101885.16;5183744;28;20038;-55
2023/01/27 11:08:49;;;;;;;1.73;0.98;;;6.40;99.90;;;6.06;100.00;101888.53;5186854;28;20045;-55
2023/01/27 11:14:25;;;;;;;2.40;1.13;;;6.30;99.90;;;6.05;100.00;101891.91;5186425;28;20123;-56
2023/01/27 11:17:07;;;;;;;1.95;1.42;;;6.30;99.90;;;6.04;100.00;101884.03;5186547;28;20325;-57
2023/01/27 11:19:48;;;;;;;1.83;1.15;;;6.30;99.90;;;6.03;100.00;101890.91;5185999;28;20061;-55
2023/01/27 11:22:27;;;;;;;1.58;0.88;;;6.30;99.90;;;6.02;100.00;101881.34;5186306;28;20054;-59